Time;durP1;ratioP1;P1;durP2;ratioP2;P2;SDS_P1;SDS_P2;PMS_P1;PMS_P2;Temp;Humidity;BMP_temperature;BMP_pressure;BME280_temperature;BME280_humidity;BME280_pressure;Samples;Min_cycle;Max_cycle;Signal;HPM_P1;HPM_P2
2023/04/21 00:00:58;;;;;;;58.70;36.53;;;8.80;99.90;;;;;;4994287;28;20800;-72
2023/04/21 00:03:25;;;;;;;59.65;38.17;;;8.80;99.90;;;;;;4995175;28;20930;-70
2023/04/21 00:05:50;;;;;;;55.53;35.63;;;8.80;99.90;;;;;;4995580;28;20433;-71
2023/04/21 00:08:17;;;;;;;53.17;34.93;;;8.90;99.90;;;;;;4997725;28;20386;-71
2023/04/21 00:10:43;;;;;;;55.03;36.20;;;9.00;99.90;;;;;;4994626;28;20518;-71
2023/04/21 00:13:09;;;;;;;53.35;34.80;;;9.00;99.90;;;;;;4993121;28;20884;-71
2023/04/21 00:15:35;;;;;;;54.55;35.45;;;9.00;99.90;;;;;;4993617;28;20477;-71
2023/04/21 00:18:02;;;;;;;54.10;33.73;;;9.00;99.90;;;;;;4992287;28;20910;-70
2023/04/21 00:20:28;;;;;;;57.83;36.92;;;9.00;99.90;;;;;;4993661;28;20398;-70
2023/04/21 00:22:55;;;;;;;55.42;35.35;;;9.00;99.90;;;;;;4992836;28;20406;-71
2023/04/21 00:25:21;;;;;;;57.72;35.70;;;9.10;99.90;;;;;;4994383;28;20949;-71
2023/04/21 00:27:47;;;;;;;49.88;33.47;;;9.10;99.90;;;;;;4994881;28;20394;-70
2023/04/21 00:30:13;;;;;;;55.08;34.75;;;9.10;99.10;;;;;;4992113;28;20443;-71
2023/04/21 00:32:38;;;;;;;53.20;33.73;;;9.10;98.30;;;;;;4992867;28;20900;-70
2023/04/21 00:35:04;;;;;;;54.73;34.50;;;9.00;99.50;;;;;;4993517;28;20422;-70
2023/04/21 00:37:30;;;;;;;54.13;34.83;;;8.80;99.90;;;;;;4991982;28;20497;-71
2023/04/21 00:39:56;;;;;;;52.80;34.60;;;8.90;99.90;;;;;;4992702;28;20409;-71
2023/04/21 00:42:21;;;;;;;51.20;32.95;;;9.00;99.90;;;;;;4992154;28;20413;-70
2023/04/21 00:44:47;;;;;;;52.50;32.33;;;9.00;98.40;;;;;;4992698;28;20393;-71
2023/04/21 00:47:12;;;;;;;50.50;31.67;;;9.00;97.10;;;;;;4992530;28;20401;-70
2023/04/21 00:49:38;;;;;;;50.20;32.35;;;9.20;95.60;;;;;;4992671;28;20391;-72
2023/04/21 00:52:08;;;;;;;54.85;32.90;;;9.10;94.40;;;;;;4990474;28;20406;-70
2023/04/21 00:54:37;;;;;;;55.70;34.25;;;8.90;98.40;;;;;;4992668;28;20461;-70
2023/04/21 00:57:03;;;;;;;53.40;32.93;;;8.80;99.90;;;;;;4992280;28;20386;-70
2023/04/21 00:59:31;;;;;;;52.20;32.70;;;8.90;99.90;;;;;;4992347;28;20391;-70
2023/04/21 01:01:57;;;;;;;54.55;32.13;;;9.00;99.90;;;;;;4991659;28;20414;-71
2023/04/21 01:04:23;;;;;;;50.70;32.35;;;9.20;97.30;;;;;;4992160;28;20378;-70
2023/04/21 01:06:48;;;;;;;48.45;31.55;;;9.10;96.50;;;;;;4992420;28;20856;-70
2023/04/21 01:09:14;;;;;;;53.88;31.77;;;9.20;95.40;;;;;;4992538;28;20413;-71
2023/04/21 01:11:40;;;;;;;51.42;33.03;;;9.20;95.60;;;;;;4992399;28;20413;-70
2023/04/21 01:14:05;;;;;;;50.90;31.80;;;9.10;96.30;;;;;;4995332;28;20868;-71
2023/04/21 01:16:32;;;;;;;50.00;31.93;;;9.10;97.00;;;;;;4997224;28;20434;-71
2023/04/21 01:18:59;;;;;;;51.70;32.50;;;9.20;94.30;;;;;;5010485;28;20382;-71
2023/04/21 01:21:25;;;;;;;51.43;31.90;;;9.10;95.80;;;;;;5009071;28;20398;-71
2023/04/21 01:23:51;;;;;;;51.67;31.40;;;9.20;96.60;;;;;;4999586;28;20557;-70
2023/04/21 01:26:21;;;;;;;50.53;32.05;;;9.20;96.10;;;;;;4992300;28;20736;-70
2023/04/21 01:28:47;;;;;;;53.40;31.85;;;9.20;96.00;;;;;;4991606;28;20788;-70
2023/04/21 01:31:17;;;;;;;51.78;31.55;;;9.10;96.10;;;;;;4991402;28;20410;-70
2023/04/21 01:33:43;;;;;;;51.72;31.13;;;9.10;96.30;;;;;;4992121;28;20417;-71
2023/04/21 01:36:09;;;;;;;54.38;32.15;;;9.10;96.40;;;;;;4991893;28;20470;-71
2023/04/21 01:38:41;;;;;;;53.63;32.60;;;9.10;97.20;;;;;;4992406;28;20398;-70
2023/04/21 01:41:07;;;;;;;53.67;34.00;;;9.10;98.10;;;;;;4991608;28;21099;-69
2023/04/21 01:43:33;;;;;;;55.05;32.85;;;9.10;98.40;;;;;;4992192;28;20406;-70
2023/04/21 01:45:59;;;;;;;55.58;32.25;;;9.10;97.70;;;;;;4992500;28;20417;-70
2023/04/21 01:48:24;;;;;;;53.17;32.00;;;9.10;97.70;;;;;;4992328;28;20379;-70
2023/04/21 01:50:50;;;;;;;55.15;33.00;;;9.10;99.90;;;;;;4991198;28;20393;-70
2023/04/21 01:53:15;;;;;;;52.22;32.30;;;9.10;99.90;;;;;;4991357;28;20382;-69
2023/04/21 01:55:41;;;;;;;60.03;33.05;;;9.00;99.90;;;;;;4991391;28;20390;-70
2023/04/21 01:58:06;;;;;;;62.30;34.50;;;8.90;99.90;;;;;;4991460;28;20390;-70
2023/04/21 02:00:32;;;;;;;52.17;32.60;;;9.00;99.90;;;;;;4991358;28;20875;-69
2023/04/21 02:02:58;;;;;;;57.00;33.22;;;9.00;99.90;;;;;;4990119;28;20449;-71
2023/04/21 02:05:23;;;;;;;54.40;33.40;;;9.00;99.90;;;;;;4991370;28;20422;-71
2023/04/21 02:07:49;;;;;;;55.33;33.25;;;8.90;99.90;;;;;;4991317;28;20791;-72
2023/04/21 02:10:15;;;;;;;59.40;34.40;;;9.10;99.90;;;;;;4991485;28;20386;-69
2023/04/21 02:12:40;;;;;;;56.03;34.45;;;9.00;99.90;;;;;;4989621;28;20398;-71
2023/04/21 02:15:06;;;;;;;56.50;33.17;;;9.00;98.70;;;;;;4991183;28;20883;-71
2023/04/21 02:17:32;;;;;;;58.13;34.95;;;9.00;99.90;;;;;;4991371;28;20478;-71
2023/04/21 02:19:57;;;;;;;57.53;34.20;;;8.90;99.90;;;;;;4991266;28;20390;-71
2023/04/21 02:22:23;;;;;;;61.10;35.60;;;8.90;99.90;;;;;;4990886;28;20493;-71
2023/04/21 02:24:49;;;;;;;59.13;35.57;;;8.80;99.90;;;;;;4991279;28;20387;-70
2023/04/21 02:27:15;;;;;;;58.78;34.88;;;8.80;99.90;;;;;;4990141;28;20399;-70
2023/04/21 02:29:41;;;;;;;52.90;32.78;;;8.90;99.90;;;;;;4991416;28;20386;-70
2023/04/21 02:32:06;;;;;;;56.17;34.40;;;8.80;99.90;;;;;;4990387;28;20416;-70
2023/04/21 02:34:32;;;;;;;55.33;34.13;;;8.90;99.90;;;;;;4992600;28;20394;-70
2023/04/21 02:36:58;;;;;;;62.53;36.50;;;8.80;99.90;;;;;;4992509;28;20402;-71
2023/04/21 02:39:24;;;;;;;58.72;35.20;;;8.80;99.90;;;;;;4995912;28;20391;-70
2023/04/21 02:41:50;;;;;;;62.08;35.30;;;8.80;99.90;;;;;;5003051;28;20442;-71
2023/04/21 02:44:15;;;;;;;58.27;35.20;;;9.00;99.90;;;;;;5001249;28;20383;-70
2023/04/21 02:46:41;;;;;;;53.63;33.77;;;8.90;99.90;;;;;;4999852;28;20863;-71
2023/04/21 02:49:07;;;;;;;58.60;33.67;;;8.90;99.90;;;;;;4995676;28;20376;-71
2023/04/21 02:51:33;;;;;;;51.97;32.42;;;8.80;99.90;;;;;;4994630;28;20383;-71
2023/04/21 02:53:59;;;;;;;64.20;36.00;;;8.90;99.90;;;;;;4994865;28;20421;-71
2023/04/21 02:56:25;;;;;;;57.67;34.40;;;8.70;99.90;;;;;;4995652;28;20394;-70
2023/04/21 02:58:50;;;;;;;63.40;36.23;;;8.50;99.90;;;;;;4996665;28;20393;-70
2023/04/21 03:01:16;;;;;;;64.83;35.83;;;8.30;99.90;;;;;;4995024;28;20398;-70
2023/04/21 03:03:41;;;;;;;59.40;35.83;;;8.30;99.90;;;;;;4995389;28;20410;-69
2023/04/21 03:06:07;;;;;;;60.60;35.77;;;8.30;99.90;;;;;;4993965;28;20445;-71
2023/04/21 03:08:33;;;;;;;68.90;38.97;;;8.20;99.90;;;;;;4994502;28;20910;-70
2023/04/21 03:10:58;;;;;;;60.53;34.30;;;8.10;99.90;;;;;;4992516;28;20393;-70
2023/04/21 03:13:24;;;;;;;61.65;36.08;;;8.10;99.90;;;;;;4994478;28;20425;-70
2023/04/21 03:15:50;;;;;;;58.88;34.25;;;8.10;99.90;;;;;;4994151;28;20739;-70
2023/04/21 03:18:16;;;;;;;60.22;35.67;;;8.10;99.90;;;;;;4994092;28;20386;-71
2023/04/21 03:20:41;;;;;;;62.53;34.20;;;8.00;99.90;;;;;;4994246;28;20541;-71
2023/04/21 03:23:07;;;;;;;58.97;33.67;;;7.90;99.90;;;;;;4993841;28;21004;-71
2023/04/21 03:25:33;;;;;;;57.73;33.80;;;7.90;99.90;;;;;;4994494;28;20759;-70
2023/04/21 03:27:58;;;;;;;70.13;35.83;;;8.00;99.90;;;;;;4994854;28;20387;-71
2023/04/21 03:30:26;;;;;;;58.40;33.30;;;7.90;99.90;;;;;;4995804;28;20736;-71
2023/04/21 03:32:54;;;;;;;59.83;34.30;;;7.80;99.90;;;;;;4997794;28;20883;-70
2023/04/21 03:35:20;;;;;;;58.22;34.03;;;7.80;99.90;;;;;;4995466;28;20391;-70
2023/04/21 03:37:45;;;;;;;59.25;34.65;;;7.90;99.90;;;;;;5007491;23;20537;-73
2023/04/21 03:40:12;;;;;;;53.63;32.10;;;7.90;99.90;;;;;;4993100;28;20457;-73
2023/04/21 03:42:38;;;;;;;58.80;32.47;;;8.00;99.90;;;;;;4992931;28;20446;-73
2023/04/21 03:45:05;;;;;;;58.50;33.03;;;8.00;99.90;;;;;;4993390;28;20418;-73
2023/04/21 03:47:31;;;;;;;58.10;33.00;;;8.00;99.90;;;;;;4993306;28;20856;-73
2023/04/21 03:49:57;;;;;;;54.13;31.97;;;8.00;99.90;;;;;;4993350;28;20414;-73
2023/04/21 03:52:22;;;;;;;58.27;33.43;;;8.00;99.90;;;;;;4992792;28;20508;-73
2023/04/21 03:54:48;;;;;;;56.03;32.57;;;8.00;99.90;;;;;;4993266;28;20762;-73
2023/04/21 03:57:14;;;;;;;56.97;32.35;;;8.00;99.90;;;;;;4993090;28;20868;-73
2023/04/21 03:59:40;;;;;;;53.63;30.70;;;8.00;99.90;;;;;;4993127;28;20439;-73
2023/04/21 04:02:06;;;;;;;51.50;30.27;;;8.10;99.90;;;;;;4992566;28;20410;-73
2023/04/21 04:04:31;;;;;;;54.50;30.93;;;8.10;99.90;;;;;;4993562;28;20395;-73
2023/04/21 04:06:57;;;;;;;51.90;30.33;;;8.00;99.90;;;;;;4992805;28;20820;-72
2023/04/21 04:09:23;;;;;;;55.60;32.70;;;8.00;99.90;;;;;;4992216;28;20386;-73
2023/04/21 04:11:48;;;;;;;53.70;31.53;;;8.00;99.90;;;;;;4992544;28;20615;-72
2023/04/21 04:14:14;;;;;;;54.60;31.50;;;7.90;99.90;;;;;;4993088;28;20848;-74
2023/04/21 04:16:40;;;;;;;49.85;29.90;;;7.90;99.90;;;;;;4993735;28;20387;-73
2023/04/21 04:19:06;;;;;;;52.65;31.15;;;7.80;99.90;;;;;;4993587;28;20419;-73
2023/04/21 04:21:32;;;;;;;58.17;33.20;;;7.80;99.90;;;;;;4993377;28;20397;-73
2023/04/21 04:23:58;;;;;;;60.80;33.85;;;7.70;99.90;;;;;;4993126;28;20790;-74
2023/04/21 04:26:24;;;;;;;61.20;33.40;;;7.70;99.90;;;;;;4992987;28;20391;-72
2023/04/21 04:28:51;;;;;;;58.40;32.88;;;7.70;99.90;;;;;;4993638;28;20418;-74
2023/04/21 04:31:16;;;;;;;58.42;33.42;;;7.70;99.90;;;;;;4994482;28;20391;-73
2023/04/21 04:33:43;;;;;;;62.15;34.08;;;7.70;99.90;;;;;;4994134;28;20855;-73
2023/04/21 04:36:10;;;;;;;58.83;33.10;;;7.60;99.90;;;;;;4993186;28;20391;-74
2023/04/21 04:38:36;;;;;;;62.65;35.10;;;7.70;99.90;;;;;;4992963;28;20391;-74
2023/04/21 04:41:03;;;;;;;68.20;35.40;;;7.60;99.90;;;;;;4992979;28;20903;-74
2023/04/21 04:43:32;;;;;;;70.18;36.03;;;7.60;99.90;;;;;;4992682;28;20433;-73
2023/04/21 04:45:58;;;;;;;67.70;35.20;;;7.60;99.90;;;;;;4992304;28;20469;-73
2023/04/21 04:48:24;;;;;;;65.28;35.65;;;7.60;99.90;;;;;;4992755;28;20383;-73
2023/04/21 04:50:50;;;;;;;69.30;37.53;;;7.80;99.90;;;;;;4992313;28;20393;-73
2023/04/21 04:53:15;;;;;;;66.40;35.70;;;7.80;99.90;;;;;;4992104;28;20422;-74
2023/04/21 04:55:41;;;;;;;71.73;37.37;;;7.80;99.90;;;;;;4992475;28;20406;-74
2023/04/21 04:58:06;;;;;;;69.97;36.73;;;7.70;99.90;;;;;;4992659;28;20390;-74
2023/04/21 05:00:32;;;;;;;69.80;37.37;;;7.70;99.90;;;;;;4992281;28;20403;-72
2023/04/21 05:02:58;;;;;;;72.77;38.33;;;7.70;99.90;;;;;;4991692;28;20410;-73
2023/04/21 05:05:26;;;;;;;70.70;37.13;;;7.80;99.90;;;;;;4992066;28;20418;-73
2023/04/21 05:07:52;;;;;;;67.80;38.42;;;7.80;99.90;;;;;;4992015;28;20784;-74
2023/04/21 05:10:17;;;;;;;73.70;39.30;;;7.80;99.90;;;;;;4992546;28;20417;-74
2023/04/21 05:12:43;;;;;;;68.60;37.50;;;7.80;99.90;;;;;;4992056;28;20394;-74
2023/04/21 05:15:09;;;;;;;70.03;38.20;;;7.90;99.90;;;;;;4994544;28;20420;-74
2023/04/21 05:17:35;;;;;;;65.22;36.85;;;8.00;99.90;;;;;;5005358;28;20875;-73
2023/04/21 05:20:02;;;;;;;65.40;36.65;;;8.10;99.90;;;;;;5000530;28;20397;-74
2023/04/21 05:22:27;;;;;;;65.27;36.60;;;8.30;99.90;;;;;;4991803;28;20487;-74
2023/04/21 05:24:53;;;;;;;63.97;35.77;;;8.30;99.90;;;;;;4992146;28;20418;-73
2023/04/21 05:27:19;;;;;;;63.13;35.40;;;8.50;99.90;;;;;;4991972;28;20386;-74
2023/04/21 05:29:44;;;;;;;61.13;35.07;;;8.60;99.90;;;;;;4993358;28;20763;-73
2023/04/21 05:32:11;;;;;;;57.27;34.60;;;8.70;99.90;;;;;;4994184;28;20387;-75
2023/04/21 05:34:37;;;;;;;56.38;31.95;;;8.80;99.90;;;;;;4995244;28;20399;-74
2023/04/21 05:37:03;;;;;;;54.23;32.90;;;8.90;99.90;;;;;;4995645;28;20502;-72
2023/04/21 05:39:28;;;;;;;51.92;31.30;;;9.00;99.90;;;;;;4996407;28;20909;-73
2023/04/21 05:41:54;;;;;;;47.47;29.52;;;9.10;99.90;;;;;;4994603;28;20390;-75
2023/04/21 05:44:20;;;;;;;50.45;31.65;;;9.20;99.90;;;;;;4992495;28;20421;-73
2023/04/21 05:46:45;;;;;;;54.85;31.75;;;9.30;99.90;;;;;;4991953;28;20386;-74
2023/04/21 05:49:11;;;;;;;52.42;32.28;;;9.30;99.90;;;;;;4990186;28;20391;-74
2023/04/21 05:51:36;;;;;;;50.75;31.77;;;9.30;99.90;;;;;;4990968;28;20390;-73
2023/04/21 05:54:02;;;;;;;52.60;32.07;;;9.40;99.90;;;;;;4991400;28;20438;-74
2023/04/21 05:56:28;;;;;;;52.13;31.80;;;9.40;99.90;;;;;;4991528;28;20419;-74
2023/04/21 05:58:53;;;;;;;53.77;30.90;;;9.40;99.90;;;;;;4991543;28;20900;-74
2023/04/21 06:01:19;;;;;;;51.77;30.43;;;9.40;99.90;;;;;;4991237;28;20795;-73
2023/04/21 06:03:47;;;;;;;49.83;31.40;;;9.40;99.90;;;;;;4991533;28;20402;-73
2023/04/21 06:06:13;;;;;;;50.67;30.38;;;9.30;99.90;;;;;;4991462;28;20406;-74
2023/04/21 06:08:39;;;;;;;49.40;29.67;;;9.40;99.90;;;;;;4990017;28;20537;-74
2023/04/21 06:11:05;;;;;;;46.20;28.77;;;9.50;99.90;;;;;;4990871;28;20441;-74
2023/04/21 06:13:30;;;;;;;46.70;28.40;;;9.50;99.90;;;;;;4991435;28;20469;-73
2023/04/21 06:15:56;;;;;;;48.37;30.20;;;9.50;99.90;;;;;;4994610;28;20390;-74
2023/04/21 06:18:22;;;;;;;51.73;30.97;;;9.60;99.90;;;;;;4995378;28;20394;-75
2023/04/21 06:20:54;;;;;;;44.08;28.75;;;9.80;99.90;;;;;;4995242;28;20394;-73
2023/04/21 06:23:20;;;;;;;47.60;30.10;;;10.00;98.80;;;;;;4995945;28;20417;-75
2023/04/21 06:25:46;;;;;;;41.45;27.40;;;10.10;95.30;;;;;;4996210;28;20386;-74
2023/04/21 06:28:11;;;;;;;45.60;28.58;;;10.10;95.00;;;;;;5004699;28;20405;-74
2023/04/21 06:30:37;;;;;;;42.53;26.08;;;10.00;94.20;;;;;;5006991;28;20386;-73
2023/04/21 06:33:03;;;;;;;44.90;28.40;;;10.20;94.30;;;;;;5005742;28;20464;-73
2023/04/21 06:35:29;;;;;;;47.40;28.90;;;10.40;88.50;;;;;;5007408;28;20386;-73
2023/04/21 06:37:55;;;;;;;40.67;26.90;;;10.50;89.90;;;;;;4995274;28;20398;-75
2023/04/21 06:40:21;;;;;;;44.92;27.73;;;10.70;87.20;;;;;;4994994;28;20405;-74
2023/04/21 06:42:46;;;;;;;43.50;26.02;;;10.60;87.70;;;;;;4995230;28;20469;-74
2023/04/21 06:45:12;;;;;;;43.42;27.25;;;10.60;87.20;;;;;;4995627;28;20474;-73
2023/04/21 06:47:38;;;;;;;44.70;27.60;;;10.80;86.90;;;;;;4994594;28;20482;-72
2023/04/21 06:50:04;;;;;;;41.47;27.13;;;10.80;87.20;;;;;;4995192;28;20457;-73
2023/04/21 06:52:30;;;;;;;41.00;26.30;;;11.00;84.90;;;;;;4994499;28;20461;-74
2023/04/21 06:54:55;;;;;;;37.10;25.30;;;11.00;83.40;;;;;;4994486;28;20821;-74
2023/04/21 06:57:21;;;;;;;38.90;26.13;;;11.10;83.60;;;;;;4995306;28;20382;-72
2023/04/21 06:59:46;;;;;;;45.37;26.30;;;11.10;82.90;;;;;;4993414;28;20395;-73
2023/04/21 07:02:12;;;;;;;38.20;24.58;;;11.10;80.60;;;;;;4994438;28;20441;-75
2023/04/21 07:04:38;;;;;;;37.83;25.65;;;11.40;77.90;;;;;;4994937;28;20390;-74
2023/04/21 07:07:03;;;;;;;42.55;25.75;;;11.50;75.30;;;;;;4994458;28;20379;-73
2023/04/21 07:09:29;;;;;;;43.07;26.50;;;11.40;75.80;;;;;;4994949;28;20391;-74
2023/04/21 07:11:55;;;;;;;40.00;25.00;;;11.50;76.80;;;;;;4994130;28;20391;-74
2023/04/21 07:14:20;;;;;;;41.53;25.02;;;11.50;75.70;;;;;;4995063;28;20744;-75
2023/04/21 07:16:46;;;;;;;39.65;26.00;;;11.60;74.40;;;;;;4994134;28;20405;-75
2023/04/21 07:19:11;;;;;;;38.87;24.50;;;11.70;73.70;;;;;;4993985;28;20936;-74
2023/04/21 07:21:37;;;;;;;34.37;23.40;;;11.70;67.80;;;;;;4993597;28;20747;-74
2023/04/21 07:24:03;;;;;;;37.40;24.07;;;11.80;66.40;;;;;;4994455;28;20879;-74
2023/04/21 07:26:28;;;;;;;37.50;25.33;;;11.90;62.00;;;;;;4993346;28;20733;-74
2023/04/21 07:28:57;;;;;;;38.80;24.50;;;12.00;63.70;;;;;;4994170;28;20390;-74
2023/04/21 07:31:23;;;;;;;35.97;24.08;;;12.20;61.10;;;;;;4993238;28;20394;-74
2023/04/21 07:33:49;;;;;;;41.78;24.98;;;12.50;59.40;;;;;;4994234;28;20386;-75
2023/04/21 07:36:15;;;;;;;38.03;25.17;;;12.40;58.30;;;;;;4993875;28;20408;-73
2023/04/21 07:38:42;;;;;;;38.28;24.63;;;12.40;59.00;;;;;;4993803;28;20398;-74
2023/04/21 07:41:11;;;;;;;39.45;25.95;;;12.40;58.30;;;;;;4992318;28;20455;-73
2023/04/21 07:43:37;;;;;;;42.45;26.52;;;12.30;58.90;;;;;;4995219;28;20402;-74
2023/04/21 07:46:03;;;;;;;39.72;25.90;;;12.50;58.50;;;;;;4997795;28;20536;-75
2023/04/21 07:48:28;;;;;;;36.85;25.38;;;12.50;56.20;;;;;;5001812;28;20410;-74
2023/04/21 07:50:54;;;;;;;43.97;26.87;;;12.50;56.20;;;;;;5000284;28;20552;-72
2023/04/21 07:53:20;;;;;;;39.17;25.60;;;12.70;57.60;;;;;;4996970;28;20394;-72
2023/04/21 07:55:45;;;;;;;37.37;25.40;;;12.70;56.90;;;;;;4995230;28;20749;-72
2023/04/21 07:58:12;;;;;;;39.47;26.23;;;12.70;55.30;;;;;;4995549;28;20386;-74
2023/04/21 08:00:38;;;;;;;38.00;25.45;;;12.70;55.00;;;;;;4995915;28;20378;-74
2023/04/21 08:03:03;;;;;;;41.77;25.60;;;12.80;54.90;;;;;;4997055;28;20530;-75
2023/04/21 08:05:31;;;;;;;38.20;25.33;;;12.90;56.80;;;;;;4996836;28;20390;-75
2023/04/21 08:07:56;;;;;;;38.97;25.02;;;13.00;54.70;;;;;;4998530;28;20398;-74
2023/04/21 08:10:22;;;;;;;41.27;25.60;;;13.10;54.10;;;;;;4994458;28;20386;-75
2023/04/21 08:12:48;;;;;;;38.80;25.70;;;13.20;55.30;;;;;;4992840;28;20494;-74
2023/04/21 08:15:13;;;;;;;37.30;25.50;;;13.40;51.90;;;;;;4993579;28;20485;-75
2023/04/21 08:17:39;;;;;;;37.28;25.38;;;13.90;50.00;;;;;;4994106;28;20394;-74
2023/04/21 08:20:05;;;;;;;39.17;24.13;;;14.00;46.80;;;;;;4993825;28;20395;-74
2023/04/21 08:22:31;;;;;;;35.58;25.65;;;13.80;46.30;;;;;;4992864;28;20997;-72
2023/04/21 08:24:56;;;;;;;37.22;24.73;;;13.90;48.10;;;;;;4993014;28;20474;-75
2023/04/21 08:27:22;;;;;;;41.30;25.23;;;14.00;47.40;;;;;;4991784;28;20402;-75
2023/04/21 08:29:48;;;;;;;41.20;26.80;;;13.90;46.80;;;;;;4993691;28;20386;-74
2023/04/21 08:32:14;;;;;;;34.55;24.27;;;13.90;48.30;;;;;;4994721;28;20764;-73
2023/04/21 08:34:40;;;;;;;36.27;24.90;;;14.50;44.20;;;;;;4993349;28;20382;-74
2023/04/21 08:37:05;;;;;;;33.60;23.95;;;14.70;46.10;;;;;;4995486;28;20406;-74
2023/04/21 08:39:31;;;;;;;38.67;23.90;;;14.70;41.80;;;;;;5003677;28;20433;-73
2023/04/21 08:41:58;;;;;;;36.30;24.63;;;14.70;43.70;;;;;;5004602;28;20390;-74
2023/04/21 08:44:23;;;;;;;34.72;23.85;;;14.80;42.90;;;;;;5001746;28;20430;-74
2023/04/21 08:46:50;;;;;;;39.33;25.83;;;14.90;40.30;;;;;;4994602;28;20393;-75
2023/04/21 08:49:18;;;;;;;41.35;24.95;;;14.80;41.80;;;;;;4995050;28;20418;-73
2023/04/21 08:51:45;;;;;;;34.65;23.90;;;14.80;42.90;;;;;;4993336;28;20489;-73
2023/04/21 08:54:10;;;;;;;41.03;25.13;;;14.80;40.90;;;;;;4992505;28;20389;-73
2023/04/21 08:56:36;;;;;;;34.72;23.17;;;14.70;44.20;;;;;;4992289;28;20457;-73
2023/04/21 08:59:10;;;;;;;33.78;22.95;;;14.50;46.00;;;;;;5068971;28;20888;-74
2023/04/21 09:02:04;;;;;;;32.70;23.27;;;14.40;45.70;;;;;;5068771;28;20388;-73
2023/04/21 09:04:30;;;;;;;36.95;24.25;;;14.50;46.80;;;;;;5066583;28;20735;-73
2023/04/21 09:06:55;;;;;;;35.13;23.50;;;14.50;46.40;;;;;;5066812;28;20446;-74
2023/04/21 09:09:21;;;;;;;35.37;22.87;;;14.50;45.80;;;;;;5068001;28;20822;-74
2023/04/21 09:11:57;;;;;;;34.87;23.70;;;14.70;44.00;;;;;;5070174;22;20536;-72
2023/04/21 09:14:31;;;;;;;38.43;24.63;;;14.60;43.70;;;;;;5048888;28;20370;-72
2023/04/21 09:17:02;;;;;;;36.92;24.15;;;14.70;43.30;;;;;;5048341;28;20421;-73
2023/04/21 09:19:28;;;;;;;36.57;24.23;;;14.50;44.60;;;;;;5030864;28;20391;-74
2023/04/21 09:21:54;;;;;;;36.03;24.40;;;14.50;45.10;;;;;;5048285;28;20410;-72
2023/04/21 09:24:20;;;;;;;47.75;24.23;;;14.60;44.30;;;;;;5049058;28;20401;-72
2023/04/21 09:26:53;;;;;;;41.23;24.00;;;14.70;45.10;;;;;;5048629;28;20379;-73
2023/04/21 09:29:23;;;;;;;34.90;22.90;;;15.20;41.40;;;;;;5030931;28;20386;-73
2023/04/21 09:31:52;;;;;;;37.60;23.20;;;15.50;40.90;;;;;;5047510;28;20794;-71
2023/04/21 09:34:23;;;;;;;35.08;24.27;;;16.00;39.40;;;;;;5048759;28;20418;-72
2023/04/21 09:36:57;;;;;;;37.55;23.20;;;15.90;36.60;;;;;;5049073;28;20906;-72
2023/04/21 09:39:23;;;;;;;34.20;23.47;;;15.70;37.30;;;;;;5047453;28;20439;-73
2023/04/21 09:41:49;;;;;;;33.80;23.27;;;15.90;37.50;;;;;;5046453;28;20398;-72
2023/04/21 09:44:16;;;;;;;33.08;22.85;;;16.10;38.00;;;;;;5047079;28;20407;-71
2023/04/21 09:46:43;;;;;;;38.78;23.15;;;16.50;34.50;;;;;;5048386;28;20473;-73
2023/04/21 09:49:12;;;;;;;36.67;23.73;;;17.10;31.30;;;;;;5046843;28;20386;-69
2023/04/21 09:51:38;;;;;;;34.22;23.40;;;17.00;31.20;;;;;;5046451;28;20747;-72
2023/04/21 09:54:14;;;;;;;37.05;24.60;;;16.80;33.60;;;;;;5047065;28;20743;-72
2023/04/21 09:56:42;;;;;;;36.90;25.00;;;16.80;32.20;;;;;;5047174;28;20444;-72
2023/04/21 09:59:14;;;;;;;34.70;24.13;;;16.80;32.70;;;;;;5047055;28;20402;-72
2023/04/21 10:01:42;;;;;;;35.65;24.90;;;16.80;34.60;;;;;;5046311;28;20433;-72
2023/04/21 10:04:08;;;;;;;38.17;25.75;;;16.90;32.90;;;;;;5047247;28;20561;-72
2023/04/21 10:06:35;;;;;;;37.15;23.90;;;17.10;31.70;;;;;;5029132;28;20398;-71
2023/04/21 10:09:04;;;;;;;35.78;23.80;;;17.10;31.40;;;;;;5041858;28;20751;-72
2023/04/21 10:11:31;;;;;;;34.40;22.75;;;17.50;30.70;;;;;;5032519;28;20407;-71
2023/04/21 10:13:57;;;;;;;33.75;22.00;;;17.90;28.30;;;;;;5035980;28;20399;-73
2023/04/21 10:16:22;;;;;;;34.87;23.60;;;18.40;25.90;;;;;;5033767;28;20390;-73
2023/04/21 10:18:48;;;;;;;31.93;22.23;;;18.20;25.30;;;;;;5033172;28;20915;-73
2023/04/21 10:21:20;;;;;;;34.97;23.40;;;18.30;24.90;;;;;;5033385;28;20839;-71
2023/04/21 10:23:47;;;;;;;34.88;22.70;;;18.20;26.30;;;;;;5033872;28;20384;-71
2023/04/21 10:26:18;;;;;;;34.88;23.48;;;17.90;26.50;;;;;;5033620;28;20379;-73
2023/04/21 10:29:08;;;;;;;40.10;24.45;;;17.40;28.70;;;;;;5033091;28;20474;-74
2023/04/21 10:31:51;;;;;;;34.17;22.65;;;17.00;31.20;;;;;;5032418;28;20387;-72
2023/04/21 10:34:27;;;;;;;36.13;23.23;;;17.30;32.20;;;;;;5015868;28;20449;-72
2023/04/21 10:36:53;;;;;;;36.45;24.15;;;17.30;30.70;;;;;;5033084;28;20379;-72
2023/04/21 10:39:43;;;;;;;42.30;25.42;;;17.20;32.00;;;;;;5033169;28;20391;-71
2023/04/21 10:42:12;;;;;;;38.60;24.17;;;17.20;32.30;;;;;;5032184;28;20474;-71
2023/04/21 10:44:50;;;;;;;39.03;24.20;;;17.40;31.90;;;;;;5033060;28;20371;-71
2023/04/21 10:47:28;;;;;;;38.28;24.88;;;17.50;31.70;;;;;;5033220;28;20769;-71
2023/04/21 10:49:56;;;;;;;36.55;23.98;;;17.70;31.10;;;;;;5032736;28;20927;-71
2023/04/21 10:52:32;;;;;;;44.17;23.80;;;17.90;30.20;;;;;;5032097;28;20391;-72
2023/04/21 10:54:58;;;;;;;37.22;23.50;;;18.60;28.10;;;;;;5032871;28;20478;-72
2023/04/21 10:57:23;;;;;;;37.90;24.33;;;18.70;25.70;;;;;;5032487;28;20573;-72
2023/04/21 10:59:49;;;;;;;36.33;24.23;;;18.80;24.70;;;;;;5033599;28;20384;-72
2023/04/21 11:02:16;;;;;;;43.73;23.70;;;18.60;27.00;;;;;;5033748;28;20383;-73
2023/04/21 11:04:49;;;;;;;38.03;24.40;;;18.80;25.60;;;;;;5033848;28;20394;-71
2023/04/21 11:07:19;;;;;;;37.63;24.70;;;18.60;25.40;;;;;;5040995;28;20388;-71
2023/04/21 11:09:47;;;;;;;39.72;25.27;;;18.30;26.40;;;;;;5028098;28;20391;-72
2023/04/21 11:12:17;;;;;;;39.38;25.33;;;18.10;28.00;;;;;;5041110;28;20409;-73
2023/04/21 11:14:45;;;;;;;40.65;25.45;;;18.20;28.00;;;;;;5015068;28;20395;-72
2023/04/21 11:17:15;;;;;;;39.00;26.33;;;18.60;27.40;;;;;;5033091;28;20422;-73
2023/04/21 11:19:45;;;;;;;45.38;26.42;;;18.50;26.10;;;;;;5035707;28;20383;-74
2023/04/21 11:22:15;;;;;;;38.13;24.17;;;18.60;26.40;;;;;;5032048;28;20465;-72
2023/04/21 11:24:44;;;;;;;44.67;27.45;;;19.00;24.20;;;;;;5033030;28;20398;-73
2023/04/21 11:27:11;;;;;;;36.30;24.02;;;19.10;24.90;;;;;;5033416;28;20478;-73
2023/04/21 11:29:37;;;;;;;40.00;25.23;;;19.20;24.30;;;;;;5032755;28;20387;-74
2023/04/21 11:32:05;;;;;;;34.60;24.50;;;19.30;24.00;;;;;;5032120;28;20402;-73
2023/04/21 11:34:31;;;;;;;38.13;25.52;;;19.50;23.80;;;;;;5033332;28;20786;-73
2023/04/21 11:36:56;;;;;;;45.53;25.57;;;19.60;23.90;;;;;;5031400;28;20493;-72
2023/04/21 11:39:22;;;;;;;36.63;24.33;;;19.70;23.50;;;;;;5032320;28;20399;-70
2023/04/21 11:41:50;;;;;;;40.38;25.20;;;19.80;22.40;;;;;;5030853;28;20388;-71
2023/04/21 11:44:41;;;;;;;39.40;24.95;;;19.60;22.40;;;;;;5013678;28;20477;-72
2023/04/21 11:47:17;;;;;;;40.20;25.10;;;19.40;23.60;;;;;;5031472;28;20991;-73
2023/04/21 11:49:47;;;;;;;43.42;26.52;;;19.60;23.60;;;;;;5031734;28;20391;-71
2023/04/21 11:52:27;;;;;;;41.97;26.67;;;19.70;24.70;;;;;;5031085;28;20507;-73
2023/04/21 11:54:58;;;;;;;40.60;25.85;;;19.50;25.00;;;;;;5032286;28;20756;-71
2023/04/21 11:57:26;;;;;;;38.75;26.05;;;19.10;26.30;;;;;;5031597;28;20771;-71
2023/04/21 11:59:52;;;;;;;42.65;25.35;;;19.10;24.90;;;;;;5031774;28;20803;-73
2023/04/21 12:02:24;;;;;;;35.67;24.80;;;19.50;24.60;;;;;;5013400;28;20394;-73
2023/04/21 12:05:16;;;;;;;39.55;25.30;;;19.70;22.60;;;;;;5031586;28;20422;-73
2023/04/21 12:07:43;;;;;;;37.15;23.48;;;19.60;23.60;;;;;;5028719;28;20772;-72
2023/04/21 12:10:11;;;;;;;34.20;23.95;;;19.50;24.10;;;;;;5032033;28;20387;-72
2023/04/21 12:12:38;;;;;;;35.55;24.27;;;19.40;24.20;;;;;;5021350;28;20493;-72
2023/04/21 12:15:05;;;;;;;35.05;24.02;;;19.30;24.40;;;;;;5029212;28;20403;-72
2023/04/21 12:17:37;;;;;;;32.28;22.25;;;19.00;24.80;;;;;;5029587;28;20410;-72
2023/04/21 12:20:07;;;;;;;35.78;22.80;;;19.00;24.60;;;;;;5028916;28;20421;-72
2023/04/21 12:22:33;;;;;;;28.48;18.58;;;19.00;24.50;;;;;;5028811;28;20402;-72
2023/04/21 12:24:58;;;;;;;29.33;17.80;;;19.20;21.50;;;;;;5029235;28;20387;-73
2023/04/21 12:27:25;;;;;;;24.40;16.85;;;19.60;21.10;;;;;;5028745;28;20949;-71
2023/04/21 12:29:50;;;;;;;24.67;17.55;;;19.70;18.70;;;;;;5023704;28;20418;-73
2023/04/21 12:32:16;;;;;;;25.47;17.10;;;19.80;19.70;;;;;;5030923;28;20417;-73